KEWN/EWN METAR and TAF weather

Enter ICAO airport designator
Station Type Date Time Source
KEWN METAR 2021/04/13 22:54 UTC NOAA

KEWN 132254Z 03007KT 10SM CLR 19/09 A3006 RMK AO2 SLP178 T01890094


Station Type Date Time Source
KEWN Decoded METAR 2021/04/13 22:54 UTC NOAA

New Bern, Craven County Regional Airport, NC, United States (KEWN) 35-04-03N 077-02-50W 3M
Apr 13, 2021 - 06:54 PM EDT / 2021.04.13 2254 UTC
Wind: from the NNE (030 degrees) at 8 MPH (7 KT):0
Visibility: 10 mile(s):0
Sky conditions: clear
Temperature: 66.0 F (18.9 C)
Dew Point: 48.9 F (9.4 C)
Relative Humidity: 54%
Pressure (altimeter): 30.06 in. Hg (1017 hPa)
ob: KEWN 132254Z 03007KT 10SM CLR 19/09 A3006 RMK AO2 SLP178 T01890094
cycle: 23

Station Type Date Time Source
KEWN TAF 2021/04/13 18:24 UTC NOAA

TAF KEWN 131722Z 1318/1418 03010G16KT P6SM SCT050
FM132300 VRB04KT P6SM FEW120
FM141600 17008G13KT P6SM SCT250

Example: see airport list